sensor_id;sensor_type;location;lat;lon;timestamp;temperature;humidity
736;DHT22;352;48.626;9.238;2022-09-09T00:00:59;16.10;99.90
736;DHT22;352;48.626;9.238;2022-09-09T00:03:36;16.10;99.90
736;DHT22;352;48.626;9.238;2022-09-09T00:06:09;16.10;99.90
736;DHT22;352;48.626;9.238;2022-09-09T00:08:44;16.10;99.90
736;DHT22;352;48.626;9.238;2022-09-09T00:11:17;16.10;99.90
736;DHT22;352;48.626;9.238;2022-09-09T00:13:48;16.00;99.90
736;DHT22;352;48.626;9.238;2022-09-09T00:16:19;16.00;99.90
736;DHT22;352;48.626;9.238;2022-09-09T00:18:55;16.00;99.90
736;DHT22;352;48.626;9.238;2022-09-09T00:21:26;16.00;99.90
736;DHT22;352;48.626;9.238;2022-09-09T00:23:58;16.00;99.90
736;DHT22;352;48.626;9.238;2022-09-09T00:26:30;16.00;99.90
736;DHT22;352;48.626;9.238;2022-09-09T00:29:05;15.90;99.90
736;DHT22;352;48.626;9.238;2022-09-09T00:31:36;15.90;99.90
736;DHT22;352;48.626;9.238;2022-09-09T00:34:10;15.90;99.90
736;DHT22;352;48.626;9.238;2022-09-09T00:36:40;16.00;99.90
736;DHT22;352;48.626;9.238;2022-09-09T00:39:13;16.00;99.90
736;DHT22;352;48.626;9.238;2022-09-09T00:41:53;16.00;99.90
736;DHT22;352;48.626;9.238;2022-09-09T00:44:30;15.90;99.90
736;DHT22;352;48.626;9.238;2022-09-09T00:47:20;15.90;99.90
736;DHT22;352;48.626;9.238;2022-09-09T00:50:00;15.90;99.90
736;DHT22;352;48.626;9.238;2022-09-09T00:52:34;15.90;99.90
736;DHT22;352;48.626;9.238;2022-09-09T00:55:08;15.90;99.90
736;DHT22;352;48.626;9.238;2022-09-09T00:57:38;15.90;99.90
736;DHT22;352;48.626;9.238;2022-09-09T01:00:22;15.90;99.90
736;DHT22;352;48.626;9.238;2022-09-09T01:03:07;15.90;99.90
736;DHT22;352;48.626;9.238;2022-09-09T01:05:42;15.90;99.90
736;DHT22;352;48.626;9.238;2022-09-09T01:08:19;15.90;99.90
736;DHT22;352;48.626;9.238;2022-09-09T01:10:54;15.90;99.90
736;DHT22;352;48.626;9.238;2022-09-09T01:13:24;15.90;99.90
736;DHT22;352;48.626;9.238;2022-09-09T01:15:52;15.90;99.90
736;DHT22;352;48.626;9.238;2022-09-09T01:18:21;15.90;99.90
736;DHT22;352;48.626;9.238;2022-09-09T01:20:58;15.90;99.90
736;DHT22;352;48.626;9.238;2022-09-09T01:23:41;15.90;99.90
736;DHT22;352;48.626;9.238;2022-09-09T01:26:25;15.80;99.90
736;DHT22;352;48.626;9.238;2022-09-09T01:28:52;15.80;99.90
736;DHT22;352;48.626;9.238;2022-09-09T01:31:22;15.80;99.90
736;DHT22;352;48.626;9.238;2022-09-09T01:33:50;15.70;99.90
736;DHT22;352;48.626;9.238;2022-09-09T01:36:26;15.70;99.90
736;DHT22;352;48.626;9.238;2022-09-09T01:38:54;15.70;99.90
736;DHT22;352;48.626;9.238;2022-09-09T01:41:22;15.70;99.90
736;DHT22;352;48.626;9.238;2022-09-09T01:43:50;15.70;99.90
736;DHT22;352;48.626;9.238;2022-09-09T01:46:17;15.70;99.90
736;DHT22;352;48.626;9.238;2022-09-09T01:48:45;15.60;99.90
736;DHT22;352;48.626;9.238;2022-09-09T01:51:12;15.60;99.90
736;DHT22;352;48.626;9.238;2022-09-09T01:53:39;15.60;99.90
736;DHT22;352;48.626;9.238;2022-09-09T01:56:14;15.60;99.90
736;DHT22;352;48.626;9.238;2022-09-09T01:58:56;15.60;99.90
736;DHT22;352;48.626;9.238;2022-09-09T02:01:35;15.60;99.90
736;DHT22;352;48.626;9.238;2022-09-09T02:04:13;15.60;99.90
736;DHT22;352;48.626;9.238;2022-09-09T02:06:46;15.50;99.90
736;DHT22;352;48.626;9.238;2022-09-09T02:09:16;15.50;99.90
736;DHT22;352;48.626;9.238;2022-09-09T02:11:47;15.50;99.90
736;DHT22;352;48.626;9.238;2022-09-09T02:14:23;15.50;99.90
736;DHT22;352;48.626;9.238;2022-09-09T02:16:56;15.50;99.90
736;DHT22;352;48.626;9.238;2022-09-09T02:19:26;15.50;99.90
736;DHT22;352;48.626;9.238;2022-09-09T02:21:55;15.50;99.90
736;DHT22;352;48.626;9.238;2022-09-09T02:24:25;15.40;99.90
736;DHT22;352;48.626;9.238;2022-09-09T02:26:53;15.40;99.90
736;DHT22;352;48.626;9.238;2022-09-09T02:29:26;15.50;99.90
736;DHT22;352;48.626;9.238;2022-09-09T02:31:57;15.50;99.90
736;DHT22;352;48.626;9.238;2022-09-09T02:34:25;15.40;99.90
736;DHT22;352;48.626;9.238;2022-09-09T02:36:54;15.40;99.90
736;DHT22;352;48.626;9.238;2022-09-09T02:39:22;15.40;99.90
736;DHT22;352;48.626;9.238;2022-09-09T02:41:49;15.30;99.90
736;DHT22;352;48.626;9.238;2022-09-09T02:44:17;15.30;99.90
736;DHT22;352;48.626;9.238;2022-09-09T02:47:01;15.20;99.90
736;DHT22;352;48.626;9.238;2022-09-09T02:49:38;15.20;99.90
736;DHT22;352;48.626;9.238;2022-09-09T02:52:08;15.20;99.90
736;DHT22;352;48.626;9.238;2022-09-09T02:54:41;15.20;99.90
736;DHT22;352;48.626;9.238;2022-09-09T02:57:12;15.20;99.90
736;DHT22;352;48.626;9.238;2022-09-09T02:59:39;15.10;99.90
736;DHT22;352;48.626;9.238;2022-09-09T03:02:08;15.10;99.90
736;DHT22;352;48.626;9.238;2022-09-09T03:04:35;15.10;99.90
736;DHT22;352;48.626;9.238;2022-09-09T03:07:02;15.20;99.90
736;DHT22;352;48.626;9.238;2022-09-09T03:09:29;15.20;99.90
736;DHT22;352;48.626;9.238;2022-09-09T03:11:58;15.20;99.90
736;DHT22;352;48.626;9.238;2022-09-09T03:14:24;15.20;99.90
736;DHT22;352;48.626;9.238;2022-09-09T03:16:51;15.20;99.90
736;DHT22;352;48.626;9.238;2022-09-09T03:19:19;15.20;99.90
736;DHT22;352;48.626;9.238;2022-09-09T03:21:47;15.30;99.90
736;DHT22;352;48.626;9.238;2022-09-09T03:24:14;15.30;99.90
736;DHT22;352;48.626;9.238;2022-09-09T03:26:41;15.20;99.90
736;DHT22;352;48.626;9.238;2022-09-09T03:29:10;15.30;99.90
736;DHT22;352;48.626;9.238;2022-09-09T03:31:37;15.30;99.90
736;DHT22;352;48.626;9.238;2022-09-09T03:34:04;15.30;99.90
736;DHT22;352;48.626;9.238;2022-09-09T03:36:33;15.40;99.90
736;DHT22;352;48.626;9.238;2022-09-09T03:39:00;15.40;99.90
736;DHT22;352;48.626;9.238;2022-09-09T03:41:28;15.40;99.90
736;DHT22;352;48.626;9.238;2022-09-09T03:43:55;15.40;99.90
736;DHT22;352;48.626;9.238;2022-09-09T03:46:24;15.40;99.90
736;DHT22;352;48.626;9.238;2022-09-09T03:48:51;15.40;99.90
736;DHT22;352;48.626;9.238;2022-09-09T03:51:18;15.50;99.90
736;DHT22;352;48.626;9.238;2022-09-09T03:53:46;15.50;99.90
736;DHT22;352;48.626;9.238;2022-09-09T03:56:13;15.50;99.90
736;DHT22;352;48.626;9.238;2022-09-09T03:58:40;15.50;99.90
736;DHT22;352;48.626;9.238;2022-09-09T04:01:09;15.50;99.90
736;DHT22;352;48.626;9.238;2022-09-09T04:03:38;15.50;99.90
736;DHT22;352;48.626;9.238;2022-09-09T04:06:07;15.50;99.90
736;DHT22;352;48.626;9.238;2022-09-09T04:08:35;15.50;99.90
736;DHT22;352;48.626;9.238;2022-09-09T04:11:05;15.40;99.90
736;DHT22;352;48.626;9.238;2022-09-09T04:13:32;15.40;99.90
736;DHT22;352;48.626;9.238;2022-09-09T04:16:01;15.30;99.90
736;DHT22;352;48.626;9.238;2022-09-09T04:18:29;15.30;99.90
736;DHT22;352;48.626;9.238;2022-09-09T04:20:56;15.30;99.90
736;DHT22;352;48.626;9.238;2022-09-09T04:23:24;15.30;99.90
736;DHT22;352;48.626;9.238;2022-09-09T04:25:52;15.30;99.90
736;DHT22;352;48.626;9.238;2022-09-09T04:28:22;15.30;99.90
736;DHT22;352;48.626;9.238;2022-09-09T04:30:49;15.30;99.90
736;DHT22;352;48.626;9.238;2022-09-09T04:33:16;15.30;99.90
736;DHT22;352;48.626;9.238;2022-09-09T04:35:44;15.20;99.90
736;DHT22;352;48.626;9.238;2022-09-09T04:38:12;15.30;99.90
736;DHT22;352;48.626;9.238;2022-09-09T04:40:42;15.30;99.90
736;DHT22;352;48.626;9.238;2022-09-09T04:43:09;15.30;99.90
736;DHT22;352;48.626;9.238;2022-09-09T04:45:37;15.40;99.90
736;DHT22;352;48.626;9.238;2022-09-09T04:48:05;15.50;99.90
736;DHT22;352;48.626;9.238;2022-09-09T04:50:32;15.50;99.90
736;DHT22;352;48.626;9.238;2022-09-09T04:53:00;15.50;99.90
736;DHT22;352;48.626;9.238;2022-09-09T04:55:27;15.60;99.90
736;DHT22;352;48.626;9.238;2022-09-09T04:57:54;15.60;99.90
736;DHT22;352;48.626;9.238;2022-09-09T05:00:22;15.70;99.90
736;DHT22;352;48.626;9.238;2022-09-09T05:02:50;15.70;99.90
736;DHT22;352;48.626;9.238;2022-09-09T05:05:17;15.70;99.90
736;DHT22;352;48.626;9.238;2022-09-09T05:07:44;15.70;99.90
736;DHT22;352;48.626;9.238;2022-09-09T05:10:11;15.70;99.90
736;DHT22;352;48.626;9.238;2022-09-09T05:12:38;15.70;99.90
736;DHT22;352;48.626;9.238;2022-09-09T05:15:06;15.70;99.90
736;DHT22;352;48.626;9.238;2022-09-09T05:17:33;15.70;99.90
736;DHT22;352;48.626;9.238;2022-09-09T05:20:02;15.70;99.90
736;DHT22;352;48.626;9.238;2022-09-09T05:22:29;15.70;99.90
736;DHT22;352;48.626;9.238;2022-09-09T05:24:56;15.80;99.90
736;DHT22;352;48.626;9.238;2022-09-09T05:27:23;15.90;99.90
736;DHT22;352;48.626;9.238;2022-09-09T05:29:50;16.00;99.90
736;DHT22;352;48.626;9.238;2022-09-09T05:32:17;16.10;99.90
736;DHT22;352;48.626;9.238;2022-09-09T05:34:44;16.20;99.90
736;DHT22;352;48.626;9.238;2022-09-09T05:37:13;16.40;99.90
736;DHT22;352;48.626;9.238;2022-09-09T05:39:40;16.50;99.90
736;DHT22;352;48.626;9.238;2022-09-09T05:42:06;16.70;99.90
736;DHT22;352;48.626;9.238;2022-09-09T05:44:33;16.80;99.90
736;DHT22;352;48.626;9.238;2022-09-09T05:47:00;16.90;99.90
736;DHT22;352;48.626;9.238;2022-09-09T05:49:27;16.90;99.90
736;DHT22;352;48.626;9.238;2022-09-09T05:51:53;16.90;99.90
736;DHT22;352;48.626;9.238;2022-09-09T05:54:22;17.00;99.90
736;DHT22;352;48.626;9.238;2022-09-09T05:56:49;17.00;99.90
736;DHT22;352;48.626;9.238;2022-09-09T05:59:16;17.10;99.90
736;DHT22;352;48.626;9.238;2022-09-09T06:01:43;17.10;99.90
736;DHT22;352;48.626;9.238;2022-09-09T06:04:10;17.10;99.90
736;DHT22;352;48.626;9.238;2022-09-09T06:06:38;17.10;99.90
736;DHT22;352;48.626;9.238;2022-09-09T06:09:07;17.20;99.90
736;DHT22;352;48.626;9.238;2022-09-09T06:11:37;17.30;99.90
736;DHT22;352;48.626;9.238;2022-09-09T06:14:05;17.30;99.90
736;DHT22;352;48.626;9.238;2022-09-09T06:16:32;17.40;99.90
736;DHT22;352;48.626;9.238;2022-09-09T06:18:59;17.40;99.90
736;DHT22;352;48.626;9.238;2022-09-09T06:21:27;17.40;99.90
736;DHT22;352;48.626;9.238;2022-09-09T06:23:54;17.60;99.90
736;DHT22;352;48.626;9.238;2022-09-09T06:26:22;17.70;99.90
736;DHT22;352;48.626;9.238;2022-09-09T06:28:53;18.30;99.90
736;DHT22;352;48.626;9.238;2022-09-09T06:31:21;18.00;99.90
736;DHT22;352;48.626;9.238;2022-09-09T06:33:49;18.10;99.90
736;DHT22;352;48.626;9.238;2022-09-09T06:36:18;18.30;99.90
736;DHT22;352;48.626;9.238;2022-09-09T06:38:46;18.30;99.90
736;DHT22;352;48.626;9.238;2022-09-09T06:41:14;18.40;99.90
736;DHT22;352;48.626;9.238;2022-09-09T06:43:41;18.50;99.90
736;DHT22;352;48.626;9.238;2022-09-09T06:46:11;18.50;99.90
736;DHT22;352;48.626;9.238;2022-09-09T06:48:39;18.60;99.90
736;DHT22;352;48.626;9.238;2022-09-09T06:51:09;18.60;99.90
736;DHT22;352;48.626;9.238;2022-09-09T06:53:37;18.80;99.90
736;DHT22;352;48.626;9.238;2022-09-09T06:56:18;19.00;99.90
736;DHT22;352;48.626;9.238;2022-09-09T06:58:47;19.80;99.90
736;DHT22;352;48.626;9.238;2022-09-09T07:01:17;19.40;99.90
736;DHT22;352;48.626;9.238;2022-09-09T07:03:46;20.00;99.90
736;DHT22;352;48.626;9.238;2022-09-09T07:06:15;20.70;99.90
736;DHT22;352;48.626;9.238;2022-09-09T07:08:42;21.10;99.90
736;DHT22;352;48.626;9.238;2022-09-09T07:11:09;21.80;99.90
736;DHT22;352;48.626;9.238;2022-09-09T07:13:36;22.20;99.90
736;DHT22;352;48.626;9.238;2022-09-09T07:16:04;22.30;99.60
736;DHT22;352;48.626;9.238;2022-09-09T07:18:33;23.20;99.90
736;DHT22;352;48.626;9.238;2022-09-09T07:21:00;23.60;99.90
736;DHT22;352;48.626;9.238;2022-09-09T07:23:27;24.30;99.90
736;DHT22;352;48.626;9.238;2022-09-09T07:25:54;24.80;99.90
736;DHT22;352;48.626;9.238;2022-09-09T07:28:21;24.90;94.80
736;DHT22;352;48.626;9.238;2022-09-09T07:30:58;24.80;94.50
736;DHT22;352;48.626;9.238;2022-09-09T07:33:26;24.70;94.10
736;DHT22;352;48.626;9.238;2022-09-09T07:36:02;24.70;94.20
736;DHT22;352;48.626;9.238;2022-09-09T07:38:29;24.20;99.90
736;DHT22;352;48.626;9.238;2022-09-09T07:41:03;24.30;93.90
736;DHT22;352;48.626;9.238;2022-09-09T07:43:30;24.30;94.10
736;DHT22;352;48.626;9.238;2022-09-09T07:45:57;24.20;94.50
736;DHT22;352;48.626;9.238;2022-09-09T07:48:24;24.00;94.70
736;DHT22;352;48.626;9.238;2022-09-09T07:50:51;23.80;95.10
736;DHT22;352;48.626;9.238;2022-09-09T07:53:29;24.00;94.70
736;DHT22;352;48.626;9.238;2022-09-09T07:56:02;24.80;94.20
736;DHT22;352;48.626;9.238;2022-09-09T07:58:29;25.00;92.60
736;DHT22;352;48.626;9.238;2022-09-09T08:00:56;25.20;92.10
736;DHT22;352;48.626;9.238;2022-09-09T08:03:23;25.40;91.40
736;DHT22;352;48.626;9.238;2022-09-09T08:05:50;25.60;91.00
736;DHT22;352;48.626;9.238;2022-09-09T08:08:17;25.50;90.40
736;DHT22;352;48.626;9.238;2022-09-09T08:10:45;25.40;90.50
736;DHT22;352;48.626;9.238;2022-09-09T08:13:12;25.60;90.80
736;DHT22;352;48.626;9.238;2022-09-09T08:15:39;25.50;90.20
736;DHT22;352;48.626;9.238;2022-09-09T08:18:06;25.70;91.60
736;DHT22;352;48.626;9.238;2022-09-09T08:20:36;26.30;90.20
736;DHT22;352;48.626;9.238;2022-09-09T08:23:05;26.40;88.30
736;DHT22;352;48.626;9.238;2022-09-09T08:25:33;26.40;87.40
736;DHT22;352;48.626;9.238;2022-09-09T08:28:01;26.20;88.00
736;DHT22;352;48.626;9.238;2022-09-09T08:30:29;25.70;88.00
736;DHT22;352;48.626;9.238;2022-09-09T08:32:55;25.70;89.10
736;DHT22;352;48.626;9.238;2022-09-09T08:35:22;25.50;89.40
736;DHT22;352;48.626;9.238;2022-09-09T08:37:53;25.50;89.30
736;DHT22;352;48.626;9.238;2022-09-09T08:40:25;25.60;89.40
736;DHT22;352;48.626;9.238;2022-09-09T08:42:55;25.30;89.00
736;DHT22;352;48.626;9.238;2022-09-09T08:45:32;25.20;90.00
736;DHT22;352;48.626;9.238;2022-09-09T08:48:14;25.20;89.40
736;DHT22;352;48.626;9.238;2022-09-09T08:50:45;24.70;90.10
736;DHT22;352;48.626;9.238;2022-09-09T08:53:18;25.10;91.10
736;DHT22;352;48.626;9.238;2022-09-09T08:55:48;25.30;89.80
736;DHT22;352;48.626;9.238;2022-09-09T08:58:18;25.50;90.00
736;DHT22;352;48.626;9.238;2022-09-09T09:01:09;26.10;89.90
736;DHT22;352;48.626;9.238;2022-09-09T09:03:50;25.80;88.20
736;DHT22;352;48.626;9.238;2022-09-09T09:06:26;25.70;87.70
736;DHT22;352;48.626;9.238;2022-09-09T09:09:05;25.40;88.80
736;DHT22;352;48.626;9.238;2022-09-09T09:11:36;25.70;89.40
736;DHT22;352;48.626;9.238;2022-09-09T09:14:09;26.00;89.00
736;DHT22;352;48.626;9.238;2022-09-09T09:16:42;26.10;87.10
736;DHT22;352;48.626;9.238;2022-09-09T09:19:14;26.30;87.60
736;DHT22;352;48.626;9.238;2022-09-09T09:21:44;27.70;87.50
736;DHT22;352;48.626;9.238;2022-09-09T09:24:18;29.10;82.00
736;DHT22;352;48.626;9.238;2022-09-09T09:26:45;30.40;77.90
736;DHT22;352;48.626;9.238;2022-09-09T09:29:14;32.00;74.60
736;DHT22;352;48.626;9.238;2022-09-09T09:31:45;33.30;66.10
736;DHT22;352;48.626;9.238;2022-09-09T09:34:13;34.30;62.30
736;DHT22;352;48.626;9.238;2022-09-09T09:36:43;34.80;58.40
736;DHT22;352;48.626;9.238;2022-09-09T09:39:24;35.10;56.40
736;DHT22;352;48.626;9.238;2022-09-09T09:41:52;36.10;56.60
736;DHT22;352;48.626;9.238;2022-09-09T09:44:24;36.90;53.70
736;DHT22;352;48.626;9.238;2022-09-09T09:46:52;36.20;50.30
736;DHT22;352;48.626;9.238;2022-09-09T09:49:19;36.00;51.00
736;DHT22;352;48.626;9.238;2022-09-09T09:51:46;35.90;50.00
736;DHT22;352;48.626;9.238;2022-09-09T09:54:18;35.70;50.20
736;DHT22;352;48.626;9.238;2022-09-09T09:56:49;36.20;48.70
736;DHT22;352;48.626;9.238;2022-09-09T09:59:32;36.30;47.30
736;DHT22;352;48.626;9.238;2022-09-09T10:02:17;35.30;47.90
736;DHT22;352;48.626;9.238;2022-09-09T10:04:45;33.60;50.80
736;DHT22;352;48.626;9.238;2022-09-09T10:07:12;32.90;53.00
736;DHT22;352;48.626;9.238;2022-09-09T10:09:42;33.00;52.20
736;DHT22;352;48.626;9.238;2022-09-09T10:12:20;33.90;51.10
736;DHT22;352;48.626;9.238;2022-09-09T10:14:57;35.70;50.00
736;DHT22;352;48.626;9.238;2022-09-09T10:17:33;36.90;46.10
736;DHT22;352;48.626;9.238;2022-09-09T10:20:16;37.00;45.90
736;DHT22;352;48.626;9.238;2022-09-09T10:22:49;38.10;43.50
736;DHT22;352;48.626;9.238;2022-09-09T10:25:26;38.00;41.60
736;DHT22;352;48.626;9.238;2022-09-09T10:28:12;38.40;42.40
736;DHT22;352;48.626;9.238;2022-09-09T10:30:52;36.30;43.30
736;DHT22;352;48.626;9.238;2022-09-09T10:33:25;34.90;45.00
736;DHT22;352;48.626;9.238;2022-09-09T10:36:01;35.40;45.00
736;DHT22;352;48.626;9.238;2022-09-09T10:38:39;36.20;44.40
736;DHT22;352;48.626;9.238;2022-09-09T10:41:17;34.60;42.90
736;DHT22;352;48.626;9.238;2022-09-09T10:44:03;32.90;47.00
736;DHT22;352;48.626;9.238;2022-09-09T10:46:40;33.40;48.30
736;DHT22;352;48.626;9.238;2022-09-09T10:49:20;35.00;45.80
736;DHT22;352;48.626;9.238;2022-09-09T10:51:56;34.10;44.90
736;DHT22;352;48.626;9.238;2022-09-09T10:54:36;33.60;45.00
736;DHT22;352;48.626;9.238;2022-09-09T10:57:13;32.90;46.90
736;DHT22;352;48.626;9.238;2022-09-09T10:59:44;31.90;49.00
736;DHT22;352;48.626;9.238;2022-09-09T11:02:15;30.50;50.40
736;DHT22;352;48.626;9.238;2022-09-09T11:04:50;30.00;51.20
736;DHT22;352;48.626;9.238;2022-09-09T11:07:26;29.80;52.40
736;DHT22;352;48.626;9.238;2022-09-09T11:09:59;29.40;52.50
736;DHT22;352;48.626;9.238;2022-09-09T11:12:28;29.50;55.50
736;DHT22;352;48.626;9.238;2022-09-09T11:15:01;29.50;54.10
736;DHT22;352;48.626;9.238;2022-09-09T11:17:50;29.40;53.40
736;DHT22;352;48.626;9.238;2022-09-09T11:20:19;28.80;56.10
736;DHT22;352;48.626;9.238;2022-09-09T11:22:50;28.30;63.10
736;DHT22;352;48.626;9.238;2022-09-09T11:25:22;28.10;63.30
736;DHT22;352;48.626;9.238;2022-09-09T11:28:02;27.90;64.40
736;DHT22;352;48.626;9.238;2022-09-09T11:30:38;27.60;63.00
736;DHT22;352;48.626;9.238;2022-09-09T11:36:35;26.60;75.70
736;DHT22;352;48.626;9.238;2022-09-09T11:39:20;26.00;74.80
736;DHT22;352;48.626;9.238;2022-09-09T11:41:50;25.50;77.40
736;DHT22;352;48.626;9.238;2022-09-09T11:44:19;25.20;80.50
736;DHT22;352;48.626;9.238;2022-09-09T11:46:51;25.20;81.70
736;DHT22;352;48.626;9.238;2022-09-09T11:49:27;25.40;81.30
736;DHT22;352;48.626;9.238;2022-09-09T11:51:55;25.40;81.40
736;DHT22;352;48.626;9.238;2022-09-09T11:54:29;25.30;78.50
736;DHT22;352;48.626;9.238;2022-09-09T11:56:56;25.40;78.40
736;DHT22;352;48.626;9.238;2022-09-09T11:59:25;25.50;79.80
736;DHT22;352;48.626;9.238;2022-09-09T12:01:55;25.60;79.80
736;DHT22;352;48.626;9.238;2022-09-09T12:04:35;25.70;80.70
736;DHT22;352;48.626;9.238;2022-09-09T12:07:29;25.90;81.50
736;DHT22;352;48.626;9.238;2022-09-09T12:09:58;26.10;80.00
736;DHT22;352;48.626;9.238;2022-09-09T12:12:29;25.80;73.30
736;DHT22;352;48.626;9.238;2022-09-09T12:15:03;25.80;75.70
736;DHT22;352;48.626;9.238;2022-09-09T12:17:44;25.80;75.20
736;DHT22;352;48.626;9.238;2022-09-09T12:20:14;25.80;75.90
736;DHT22;352;48.626;9.238;2022-09-09T12:23:02;25.80;76.10
736;DHT22;352;48.626;9.238;2022-09-09T12:25:36;25.90;75.70
736;DHT22;352;48.626;9.238;2022-09-09T12:28:12;25.80;74.90
736;DHT22;352;48.626;9.238;2022-09-09T12:30:48;25.70;72.20
736;DHT22;352;48.626;9.238;2022-09-09T12:33:18;25.70;73.10
736;DHT22;352;48.626;9.238;2022-09-09T12:35:49;25.60;72.20
736;DHT22;352;48.626;9.238;2022-09-09T12:38:25;25.60;71.60
736;DHT22;352;48.626;9.238;2022-09-09T12:40:56;25.60;70.20
736;DHT22;352;48.626;9.238;2022-09-09T12:43:24;25.50;72.20
736;DHT22;352;48.626;9.238;2022-09-09T12:45:56;25.40;69.90
736;DHT22;352;48.626;9.238;2022-09-09T12:48:29;25.30;70.90
736;DHT22;352;48.626;9.238;2022-09-09T12:50:57;25.30;72.00
736;DHT22;352;48.626;9.238;2022-09-09T12:53:28;25.30;70.60
736;DHT22;352;48.626;9.238;2022-09-09T12:55:57;25.40;73.50
736;DHT22;352;48.626;9.238;2022-09-09T12:58:26;25.50;71.50
736;DHT22;352;48.626;9.238;2022-09-09T13:00:59;25.50;70.60
736;DHT22;352;48.626;9.238;2022-09-09T13:03:27;25.60;71.00
736;DHT22;352;48.626;9.238;2022-09-09T13:05:58;25.40;70.20
736;DHT22;352;48.626;9.238;2022-09-09T13:08:27;25.40;71.00
736;DHT22;352;48.626;9.238;2022-09-09T13:10:56;25.20;68.50
736;DHT22;352;48.626;9.238;2022-09-09T13:13:27;25.10;69.60
736;DHT22;352;48.626;9.238;2022-09-09T13:15:56;24.90;68.70
736;DHT22;352;48.626;9.238;2022-09-09T13:18:27;24.70;69.00
736;DHT22;352;48.626;9.238;2022-09-09T13:20:56;24.60;69.80
736;DHT22;352;48.626;9.238;2022-09-09T13:23:32;24.60;68.50
736;DHT22;352;48.626;9.238;2022-09-09T13:26:06;24.70;69.90
736;DHT22;352;48.626;9.238;2022-09-09T13:28:51;24.70;68.70
736;DHT22;352;48.626;9.238;2022-09-09T13:31:29;24.60;68.50
736;DHT22;352;48.626;9.238;2022-09-09T13:34:13;24.50;70.00
736;DHT22;352;48.626;9.238;2022-09-09T13:36:48;24.40;70.10
736;DHT22;352;48.626;9.238;2022-09-09T13:39:17;24.50;70.20
736;DHT22;352;48.626;9.238;2022-09-09T13:41:45;24.20;71.40
736;DHT22;352;48.626;9.238;2022-09-09T13:44:17;24.30;73.40
736;DHT22;352;48.626;9.238;2022-09-09T13:46:46;24.30;73.90
736;DHT22;352;48.626;9.238;2022-09-09T13:49:21;24.50;74.20
736;DHT22;352;48.626;9.238;2022-09-09T13:51:50;24.60;75.70
736;DHT22;352;48.626;9.238;2022-09-09T13:54:20;24.60;72.80
736;DHT22;352;48.626;9.238;2022-09-09T13:56:48;24.60;72.60
736;DHT22;352;48.626;9.238;2022-09-09T13:59:17;24.60;71.60
736;DHT22;352;48.626;9.238;2022-09-09T14:01:45;24.60;73.70
736;DHT22;352;48.626;9.238;2022-09-09T14:04:12;24.60;70.60
736;DHT22;352;48.626;9.238;2022-09-09T14:06:39;24.40;67.30
736;DHT22;352;48.626;9.238;2022-09-09T14:09:07;24.10;66.80
736;DHT22;352;48.626;9.238;2022-09-09T14:11:37;24.10;67.60
736;DHT22;352;48.626;9.238;2022-09-09T14:14:05;24.00;69.10
736;DHT22;352;48.626;9.238;2022-09-09T14:16:32;23.90;69.10
736;DHT22;352;48.626;9.238;2022-09-09T14:18:59;24.00;71.90
736;DHT22;352;48.626;9.238;2022-09-09T14:21:27;24.20;73.30
736;DHT22;352;48.626;9.238;2022-09-09T14:23:54;24.40;71.70
736;DHT22;352;48.626;9.238;2022-09-09T14:26:24;24.50;70.90
736;DHT22;352;48.626;9.238;2022-09-09T14:28:53;24.60;68.70
736;DHT22;352;48.626;9.238;2022-09-09T14:31:19;24.70;70.20
736;DHT22;352;48.626;9.238;2022-09-09T14:33:46;24.70;69.20
736;DHT22;352;48.626;9.238;2022-09-09T14:36:13;24.70;68.10
736;DHT22;352;48.626;9.238;2022-09-09T14:38:40;24.60;67.70
736;DHT22;352;48.626;9.238;2022-09-09T14:41:09;24.50;67.50
736;DHT22;352;48.626;9.238;2022-09-09T14:43:37;24.60;68.40
736;DHT22;352;48.626;9.238;2022-09-09T14:46:06;24.60;67.20
736;DHT22;352;48.626;9.238;2022-09-09T14:48:34;24.40;67.00
736;DHT22;352;48.626;9.238;2022-09-09T14:51:05;24.30;67.00
736;DHT22;352;48.626;9.238;2022-09-09T14:53:33;24.20;67.20
736;DHT22;352;48.626;9.238;2022-09-09T14:56:04;24.30;67.50
736;DHT22;352;48.626;9.238;2022-09-09T14:58:31;24.30;66.70
736;DHT22;352;48.626;9.238;2022-09-09T15:01:02;24.40;66.70
736;DHT22;352;48.626;9.238;2022-09-09T15:03:31;24.50;66.80
736;DHT22;352;48.626;9.238;2022-09-09T15:05:57;24.50;65.70
736;DHT22;352;48.626;9.238;2022-09-09T15:08:24;24.30;63.40
736;DHT22;352;48.626;9.238;2022-09-09T15:10:59;24.20;63.90
736;DHT22;352;48.626;9.238;2022-09-09T15:13:26;24.10;66.50
736;DHT22;352;48.626;9.238;2022-09-09T15:15:53;24.10;64.70
736;DHT22;352;48.626;9.238;2022-09-09T15:18:19;24.10;65.60
736;DHT22;352;48.626;9.238;2022-09-09T15:20:47;24.00;63.70
736;DHT22;352;48.626;9.238;2022-09-09T15:23:15;24.00;64.80
736;DHT22;352;48.626;9.238;2022-09-09T15:25:50;23.80;64.10
736;DHT22;352;48.626;9.238;2022-09-09T15:28:17;23.70;64.50
736;DHT22;352;48.626;9.238;2022-09-09T15:30:47;23.70;64.10
736;DHT22;352;48.626;9.238;2022-09-09T15:33:14;23.80;66.40
736;DHT22;352;48.626;9.238;2022-09-09T15:35:40;24.00;66.40
736;DHT22;352;48.626;9.238;2022-09-09T15:38:08;24.10;65.00
736;DHT22;352;48.626;9.238;2022-09-09T15:40:35;24.10;65.40
736;DHT22;352;48.626;9.238;2022-09-09T15:43:02;24.10;66.40
736;DHT22;352;48.626;9.238;2022-09-09T15:45:29;24.10;66.00
736;DHT22;352;48.626;9.238;2022-09-09T15:47:56;24.00;65.90
736;DHT22;352;48.626;9.238;2022-09-09T15:50:23;23.90;66.70
736;DHT22;352;48.626;9.238;2022-09-09T15:52:49;23.90;66.00
736;DHT22;352;48.626;9.238;2022-09-09T15:55:19;23.90;66.70
736;DHT22;352;48.626;9.238;2022-09-09T15:57:47;23.90;66.70
736;DHT22;352;48.626;9.238;2022-09-09T16:00:14;23.90;67.60
736;DHT22;352;48.626;9.238;2022-09-09T16:02:41;23.80;65.80
736;DHT22;352;48.626;9.238;2022-09-09T16:05:08;23.60;65.70
736;DHT22;352;48.626;9.238;2022-09-09T16:07:34;23.50;65.90
736;DHT22;352;48.626;9.238;2022-09-09T16:10:01;23.40;65.00
736;DHT22;352;48.626;9.238;2022-09-09T16:12:30;23.30;66.40
736;DHT22;352;48.626;9.238;2022-09-09T16:14:56;23.30;67.10
736;DHT22;352;48.626;9.238;2022-09-09T16:17:24;23.30;66.80
736;DHT22;352;48.626;9.238;2022-09-09T16:19:53;23.20;66.50
736;DHT22;352;48.626;9.238;2022-09-09T16:22:19;23.20;67.50
736;DHT22;352;48.626;9.238;2022-09-09T16:24:46;23.10;66.60
736;DHT22;352;48.626;9.238;2022-09-09T16:27:13;23.00;67.20
736;DHT22;352;48.626;9.238;2022-09-09T16:29:41;23.00;67.50
736;DHT22;352;48.626;9.238;2022-09-09T16:32:08;22.90;67.50
736;DHT22;352;48.626;9.238;2022-09-09T16:34:35;22.80;67.00
736;DHT22;352;48.626;9.238;2022-09-09T16:37:02;22.80;68.70
736;DHT22;352;48.626;9.238;2022-09-09T16:39:29;22.90;69.20
736;DHT22;352;48.626;9.238;2022-09-09T16:41:55;22.80;68.50
736;DHT22;352;48.626;9.238;2022-09-09T16:44:22;22.80;69.20
736;DHT22;352;48.626;9.238;2022-09-09T16:46:52;22.80;69.40
736;DHT22;352;48.626;9.238;2022-09-09T16:49:20;22.80;70.10
736;DHT22;352;48.626;9.238;2022-09-09T16:51:48;22.80;69.30
736;DHT22;352;48.626;9.238;2022-09-09T16:54:18;22.90;69.30
736;DHT22;352;48.626;9.238;2022-09-09T16:56:47;22.90;69.70
736;DHT22;352;48.626;9.238;2022-09-09T16:59:15;22.80;69.90